sensor_id;sensor_type;location;lat;lon;timestamp;pressure;altitude;pressure_sealevel;temperature
74750;BMP280;63269;53.330;-6.288;2023-08-12T00:01:38;100489.53;;;23.63
74750;BMP280;63269;53.330;-6.288;2023-08-12T00:04:04;100486.09;;;23.63
74750;BMP280;63269;53.330;-6.288;2023-08-12T00:06:30;100486.88;;;23.63
74750;BMP280;63269;53.330;-6.288;2023-08-12T00:08:55;100483.44;;;23.63
74750;BMP280;63269;53.330;-6.288;2023-08-12T00:11:20;100481.50;;;23.63
74750;BMP280;63269;53.330;-6.288;2023-08-12T00:13:46;100460.09;;;23.63
74750;BMP280;63269;53.330;-6.288;2023-08-12T00:16:11;100470.81;;;23.63
74750;BMP280;63269;53.330;-6.288;2023-08-12T00:18:36;100453.97;;;23.63
74750;BMP280;63269;53.330;-6.288;2023-08-12T00:21:09;100447.44;;;23.64
74750;BMP280;63269;53.330;-6.288;2023-08-12T00:23:39;100449.38;;;23.63
74750;BMP280;63269;53.330;-6.288;2023-08-12T00:26:09;100449.38;;;23.63
74750;BMP280;63269;53.330;-6.288;2023-08-12T00:28:35;100448.63;;;23.63
74750;BMP280;63269;53.330;-6.288;2023-08-12T00:31:00;100458.59;;;23.62
74750;BMP280;63269;53.330;-6.288;2023-08-12T00:33:26;100452.50;;;23.62
74750;BMP280;63269;53.330;-6.288;2023-08-12T00:35:51;100441.81;;;23.62
74750;BMP280;63269;53.330;-6.288;2023-08-12T00:38:16;100455.66;;;23.60
74750;BMP280;63269;53.330;-6.288;2023-08-12T00:40:42;100454.91;;;23.60
74750;BMP280;63269;53.330;-6.288;2023-08-12T00:43:08;100444.19;;;23.60
74750;BMP280;63269;53.330;-6.288;2023-08-12T00:45:34;100439.28;;;23.58
74750;BMP280;63269;53.330;-6.288;2023-08-12T00:48:01;100421.75;;;23.57
74750;BMP280;63269;53.330;-6.288;2023-08-12T00:50:28;100429.06;;;23.57
74750;BMP280;63269;53.330;-6.288;2023-08-12T00:52:53;100429.06;;;23.57
74750;BMP280;63269;53.330;-6.288;2023-08-12T00:55:19;100431.47;;;23.55
74750;BMP280;63269;53.330;-6.288;2023-08-12T00:57:46;100419.28;;;23.54
74750;BMP280;63269;53.330;-6.288;2023-08-12T01:00:12;100428.78;;;23.55
74750;BMP280;63269;53.330;-6.288;2023-08-12T01:02:38;100424.63;;;23.54
74750;BMP280;63269;53.330;-6.288;2023-08-12T01:05:03;100413.94;;;23.54
74750;BMP280;63269;53.330;-6.288;2023-08-12T01:07:29;100431.94;;;23.53
74750;BMP280;63269;53.330;-6.288;2023-08-12T01:09:55;100422.41;;;23.52
74750;BMP280;63269;53.330;-6.288;2023-08-12T01:12:31;100425.09;;;23.52
74750;BMP280;63269;53.330;-6.288;2023-08-12T01:15:08;100423.16;;;23.53
74750;BMP280;63269;53.330;-6.288;2023-08-12T01:17:37;100422.56;;;23.48
74750;BMP280;63269;53.330;-6.288;2023-08-12T01:20:06;100415.31;;;23.49
74750;BMP280;63269;53.330;-6.288;2023-08-12T01:22:38;100410.69;;;23.50
74750;BMP280;63269;53.330;-6.288;2023-08-12T01:25:07;100408.00;;;23.50
74750;BMP280;63269;53.330;-6.288;2023-08-12T01:27:35;100402.66;;;23.50
74750;BMP280;63269;53.330;-6.288;2023-08-12T01:30:01;100397.31;;;23.50
74750;BMP280;63269;53.330;-6.288;2023-08-12T01:32:36;100398.00;;;23.50
74750;BMP280;63269;53.330;-6.288;2023-08-12T01:35:15;100383.91;;;23.50
74750;BMP280;63269;53.330;-6.288;2023-08-12T01:37:43;100385.88;;;23.49
74750;BMP280;63269;53.330;-6.288;2023-08-12T01:40:09;100381.69;;;23.48
74750;BMP280;63269;53.330;-6.288;2023-08-12T01:42:36;100378.56;;;23.50
74750;BMP280;63269;53.330;-6.288;2023-08-12T01:45:02;100364.44;;;23.49
74750;BMP280;63269;53.330;-6.288;2023-08-12T01:47:28;100365.19;;;23.50
74750;BMP280;63269;53.330;-6.288;2023-08-12T01:49:55;100364.44;;;23.49
74750;BMP280;63269;53.330;-6.288;2023-08-12T01:52:20;100363.69;;;23.48
74750;BMP280;63269;53.330;-6.288;2023-08-12T01:54:46;100365.63;;;23.48
74750;BMP280;63269;53.330;-6.288;2023-08-12T01:57:11;100364.44;;;23.49
74750;BMP280;63269;53.330;-6.288;2023-08-12T01:59:38;100359.09;;;23.49
74750;BMP280;63269;53.330;-6.288;2023-08-12T02:02:04;100361.78;;;23.49
74750;BMP280;63269;53.330;-6.288;2023-08-12T02:04:30;100357.59;;;23.48
74750;BMP280;63269;53.330;-6.288;2023-08-12T02:06:55;100354.94;;;23.48
74750;BMP280;63269;53.330;-6.288;2023-08-12T02:09:21;100352.97;;;23.48
74750;BMP280;63269;53.330;-6.288;2023-08-12T02:11:47;100346.16;;;23.47
74750;BMP280;63269;53.330;-6.288;2023-08-12T02:14:13;100346.16;;;23.47
74750;BMP280;63269;53.330;-6.288;2023-08-12T02:16:38;100344.22;;;23.48
74750;BMP280;63269;53.330;-6.288;2023-08-12T02:19:04;100340.81;;;23.47
74750;BMP280;63269;53.330;-6.288;2023-08-12T02:21:29;100342.72;;;23.47
74750;BMP280;63269;53.330;-6.288;2023-08-12T02:23:54;100332.03;;;23.47
74750;BMP280;63269;53.330;-6.288;2023-08-12T02:26:20;100332.03;;;23.47
74750;BMP280;63269;53.330;-6.288;2023-08-12T02:28:45;100317.91;;;23.46
74750;BMP280;63269;53.330;-6.288;2023-08-12T02:31:11;100333.25;;;23.46
74750;BMP280;63269;53.330;-6.288;2023-08-12T02:33:36;100323.25;;;23.46
74750;BMP280;63269;53.330;-6.288;2023-08-12T02:36:02;100323.25;;;23.46
74750;BMP280;63269;53.330;-6.288;2023-08-12T02:38:27;100326.66;;;23.47
74750;BMP280;63269;53.330;-6.288;2023-08-12T02:40:53;100333.97;;;23.46
74750;BMP280;63269;53.330;-6.288;2023-08-12T02:43:18;100333.97;;;23.46
74750;BMP280;63269;53.330;-6.288;2023-08-12T02:45:44;100329.81;;;23.45
74750;BMP280;63269;53.330;-6.288;2023-08-12T02:48:10;100340.81;;;23.47
74750;BMP280;63269;53.330;-6.288;2023-08-12T02:50:35;100326.66;;;23.47
74750;BMP280;63269;53.330;-6.288;2023-08-12T02:53:01;100317.91;;;23.46
74750;BMP280;63269;53.330;-6.288;2023-08-12T02:55:27;100323.53;;;23.48
74750;BMP280;63269;53.330;-6.288;2023-08-12T02:57:53;100314.53;;;23.46
74750;BMP280;63269;53.330;-6.288;2023-08-12T03:00:18;100307.19;;;23.46
74750;BMP280;63269;53.330;-6.288;2023-08-12T03:02:44;100303.06;;;23.45
74750;BMP280;63269;53.330;-6.288;2023-08-12T03:05:09;100309.88;;;23.46
74750;BMP280;63269;53.330;-6.288;2023-08-12T03:07:35;100306.50;;;23.46
74750;BMP280;63269;53.330;-6.288;2023-08-12T03:10:00;100307.69;;;23.45
74750;BMP280;63269;53.330;-6.288;2023-08-12T03:12:26;100303.06;;;23.45
74750;BMP280;63269;53.330;-6.288;2023-08-12T03:14:51;100293.53;;;23.44
74750;BMP280;63269;53.330;-6.288;2023-08-12T03:17:17;100306.50;;;23.46
74750;BMP280;63269;53.330;-6.288;2023-08-12T03:19:43;100307.19;;;23.46
74750;BMP280;63269;53.330;-6.288;2023-08-12T03:22:08;100295.78;;;23.46
74750;BMP280;63269;53.330;-6.288;2023-08-12T03:24:34;100285.78;;;23.46
74750;BMP280;63269;53.330;-6.288;2023-08-12T03:26:59;100298.47;;;23.46
74750;BMP280;63269;53.330;-6.288;2023-08-12T03:29:25;100292.34;;;23.45
74750;BMP280;63269;53.330;-6.288;2023-08-12T03:31:50;100295.47;;;23.44
74750;BMP280;63269;53.330;-6.288;2023-08-12T03:34:16;100273.63;;;23.45
74750;BMP280;63269;53.330;-6.288;2023-08-12T03:36:41;100276.75;;;23.44
74750;BMP280;63269;53.330;-6.288;2023-08-12T03:39:07;100276.28;;;23.45
74750;BMP280;63269;53.330;-6.288;2023-08-12T03:41:32;100269.44;;;23.44
74750;BMP280;63269;53.330;-6.288;2023-08-12T03:43:57;100266.78;;;23.44
74750;BMP280;63269;53.330;-6.288;2023-08-12T03:46:23;100263.66;;;23.46
74750;BMP280;63269;53.330;-6.288;2023-08-12T03:48:48;100264.84;;;23.45
74750;BMP280;63269;53.330;-6.288;2023-08-12T03:51:14;100262.91;;;23.45
74750;BMP280;63269;53.330;-6.288;2023-08-12T03:53:39;100266.34;;;23.46
74750;BMP280;63269;53.330;-6.288;2023-08-12T03:56:04;100256.06;;;23.44
74750;BMP280;63269;53.330;-6.288;2023-08-12T03:58:30;100257.56;;;23.45
74750;BMP280;63269;53.330;-6.288;2023-08-12T04:00:55;100266.03;;;23.44
74750;BMP280;63269;53.330;-6.288;2023-08-12T04:03:21;100261.41;;;23.44
74750;BMP280;63269;53.330;-6.288;2023-08-12T04:05:47;100254.59;;;23.43
74750;BMP280;63269;53.330;-6.288;2023-08-12T04:08:13;100246.56;;;23.43
74750;BMP280;63269;53.330;-6.288;2023-08-12T04:10:39;100262.63;;;23.43
74750;BMP280;63269;53.330;-6.288;2023-08-12T04:13:04;100247.31;;;23.44
74750;BMP280;63269;53.330;-6.288;2023-08-12T04:15:31;100246.56;;;23.43
74750;BMP280;63269;53.330;-6.288;2023-08-12T04:17:56;100247.31;;;23.44
74750;BMP280;63269;53.330;-6.288;2023-08-12T04:20:23;100243.91;;;23.43
74750;BMP280;63269;53.330;-6.288;2023-08-12T04:22:49;100254.59;;;23.43
74750;BMP280;63269;53.330;-6.288;2023-08-12T04:25:14;100245.81;;;23.43
74750;BMP280;63269;53.330;-6.288;2023-08-12T04:27:40;100241.69;;;23.42
74750;BMP280;63269;53.330;-6.288;2023-08-12T04:30:05;100234.41;;;23.42
74750;BMP280;63269;53.330;-6.288;2023-08-12T04:32:31;100255.81;;;23.42
74750;BMP280;63269;53.330;-6.288;2023-08-12T04:34:56;100248.97;;;23.41
74750;BMP280;63269;53.330;-6.288;2023-08-12T04:37:22;100242.88;;;23.41
74750;BMP280;63269;53.330;-6.288;2023-08-12T04:39:49;100250.19;;;23.40
74750;BMP280;63269;53.330;-6.288;2023-08-12T04:42:15;100254.31;;;23.41
74750;BMP280;63269;53.330;-6.288;2023-08-12T04:44:41;100239.47;;;23.40
74750;BMP280;63269;53.330;-6.288;2023-08-12T04:47:06;100246.75;;;23.40
74750;BMP280;63269;53.330;-6.288;2023-08-12T04:49:31;100232.63;;;23.39
74750;BMP280;63269;53.330;-6.288;2023-08-12T04:51:57;100223.41;;;23.40
74750;BMP280;63269;53.330;-6.288;2023-08-12T04:54:23;100221.94;;;23.39
74750;BMP280;63269;53.330;-6.288;2023-08-12T04:56:49;100222.41;;;23.38
74750;BMP280;63269;53.330;-6.288;2023-08-12T04:59:14;100227.00;;;23.37
74750;BMP280;63269;53.330;-6.288;2023-08-12T05:01:40;100225.81;;;23.38
74750;BMP280;63269;53.330;-6.288;2023-08-12T05:04:05;100217.78;;;23.38
74750;BMP280;63269;53.330;-6.288;2023-08-12T05:06:31;100211.72;;;23.38
74750;BMP280;63269;53.330;-6.288;2023-08-12T05:08:56;100218.25;;;23.37
74750;BMP280;63269;53.330;-6.288;2023-08-12T05:11:21;100215.13;;;23.38
74750;BMP280;63269;53.330;-6.288;2023-08-12T05:13:47;100218.69;;;23.35
74750;BMP280;63269;53.330;-6.288;2023-08-12T05:16:12;100224.06;;;23.35
74750;BMP280;63269;53.330;-6.288;2023-08-12T05:18:38;100223.59;;;23.37
74750;BMP280;63269;53.330;-6.288;2023-08-12T05:33:10;100231.38;;;23.35
74750;BMP280;63269;53.330;-6.288;2023-08-12T05:35:35;100227.00;;;23.37
74750;BMP280;63269;53.330;-6.288;2023-08-12T05:38:01;100240.09;;;23.35
74750;BMP280;63269;53.330;-6.288;2023-08-12T05:40:27;100245.47;;;23.35
74750;BMP280;63269;53.330;-6.288;2023-08-12T05:42:53;100234.75;;;23.35
74750;BMP280;63269;53.330;-6.288;2023-08-12T05:45:18;100242.78;;;23.35
74750;BMP280;63269;53.330;-6.288;2023-08-12T05:47:44;100230.63;;;23.34
74750;BMP280;63269;53.330;-6.288;2023-08-12T05:50:09;100240.59;;;23.34
74750;BMP280;63269;53.330;-6.288;2023-08-12T05:52:35;100241.78;;;23.33
74750;BMP280;63269;53.330;-6.288;2023-08-12T05:55:00;100239.09;;;23.33
74750;BMP280;63269;53.330;-6.288;2023-08-12T05:57:25;100242.50;;;23.33
74750;BMP280;63269;53.330;-6.288;2023-08-12T05:59:51;100227.66;;;23.32
74750;BMP280;63269;53.330;-6.288;2023-08-12T06:02:16;100243.28;;;23.34
74750;BMP280;63269;53.330;-6.288;2023-08-12T06:04:42;100231.06;;;23.33
74750;BMP280;63269;53.330;-6.288;2023-08-12T06:07:08;100238.38;;;23.32
74750;BMP280;63269;53.330;-6.288;2023-08-12T06:09:33;100237.59;;;23.32
74750;BMP280;63269;53.330;-6.288;2023-08-12T06:11:58;100243.72;;;23.32
74750;BMP280;63269;53.330;-6.288;2023-08-12T06:14:24;100243.72;;;23.32
74750;BMP280;63269;53.330;-6.288;2023-08-12T06:16:49;100242.25;;;23.31
74750;BMP280;63269;53.330;-6.288;2023-08-12T06:19:15;100245.63;;;23.32
74750;BMP280;63269;53.330;-6.288;2023-08-12T06:21:40;100237.59;;;23.32
74750;BMP280;63269;53.330;-6.288;2023-08-12T06:24:06;100253.66;;;23.32
74750;BMP280;63269;53.330;-6.288;2023-08-12T06:26:31;100261.00;;;23.31
74750;BMP280;63269;53.330;-6.288;2023-08-12T06:28:56;100246.41;;;23.32
74750;BMP280;63269;53.330;-6.288;2023-08-12T06:31:22;100241.78;;;23.33
74750;BMP280;63269;53.330;-6.288;2023-08-12T06:33:47;100237.16;;;23.33
74750;BMP280;63269;53.330;-6.288;2023-08-12T06:36:13;100234.94;;;23.32
74750;BMP280;63269;53.330;-6.288;2023-08-12T06:38:38;100242.25;;;23.31
74750;BMP280;63269;53.330;-6.288;2023-08-12T06:41:03;100242.25;;;23.31
74750;BMP280;63269;53.330;-6.288;2023-08-12T06:43:29;100259.00;;;23.32
74750;BMP280;63269;53.330;-6.288;2023-08-12T06:45:54;100247.63;;;23.31
74750;BMP280;63269;53.330;-6.288;2023-08-12T06:48:19;100247.63;;;23.31
74750;BMP280;63269;53.330;-6.288;2023-08-12T06:50:45;100234.94;;;23.32
74750;BMP280;63269;53.330;-6.288;2023-08-12T06:53:10;100246.88;;;23.31
74750;BMP280;63269;53.330;-6.288;2023-08-12T06:55:36;100246.13;;;23.30
74750;BMP280;63269;53.330;-6.288;2023-08-12T06:58:01;100246.88;;;23.31
74750;BMP280;63269;53.330;-6.288;2023-08-12T07:00:27;100240.75;;;23.30
74750;BMP280;63269;53.330;-6.288;2023-08-12T07:02:53;100249.56;;;23.31
74750;BMP280;63269;53.330;-6.288;2023-08-12T07:05:18;100258.31;;;23.31
74750;BMP280;63269;53.330;-6.288;2023-08-12T07:07:43;100259.50;;;23.30
74750;BMP280;63269;53.330;-6.288;2023-08-12T07:10:09;100258.75;;;23.30
74750;BMP280;63269;53.330;-6.288;2023-08-12T07:12:35;100255.63;;;23.31
74750;BMP280;63269;53.330;-6.288;2023-08-12T07:15:00;100262.19;;;23.30
74750;BMP280;63269;53.330;-6.288;2023-08-12T07:17:26;100264.38;;;23.32
74750;BMP280;63269;53.330;-6.288;2023-08-12T07:19:51;100269.03;;;23.31
74750;BMP280;63269;53.330;-6.288;2023-08-12T07:22:16;100261.00;;;23.31
74750;BMP280;63269;53.330;-6.288;2023-08-12T07:24:44;100265.13;;;23.32
74750;BMP280;63269;53.330;-6.288;2023-08-12T07:27:10;100271.69;;;23.31
74750;BMP280;63269;53.330;-6.288;2023-08-12T07:29:35;100275.56;;;23.30
74750;BMP280;63269;53.330;-6.288;2023-08-12T07:32:01;100289.69;;;23.31
74750;BMP280;63269;53.330;-6.288;2023-08-12T07:34:26;100278.22;;;23.30
74750;BMP280;63269;53.330;-6.288;2023-08-12T07:36:51;100272.41;;;23.32
74750;BMP280;63269;53.330;-6.288;2023-08-12T07:39:17;100283.84;;;23.32
74750;BMP280;63269;53.330;-6.288;2023-08-12T07:41:42;100279.97;;;23.33
74750;BMP280;63269;53.330;-6.288;2023-08-12T07:44:08;100280.72;;;23.34
74750;BMP280;63269;53.330;-6.288;2023-08-12T07:46:33;100286.81;;;23.34
74750;BMP280;63269;53.330;-6.288;2023-08-12T07:48:58;100282.47;;;23.37
74750;BMP280;63269;53.330;-6.288;2023-08-12T07:51:24;100287.81;;;23.37
74750;BMP280;63269;53.330;-6.288;2023-08-12T07:53:50;100296.59;;;23.37
74750;BMP280;63269;53.330;-6.288;2023-08-12T07:56:15;100293.44;;;23.39
74750;BMP280;63269;53.330;-6.288;2023-08-12T07:58:41;100298.78;;;23.39
74750;BMP280;63269;53.330;-6.288;2023-08-12T08:01:06;100298.06;;;23.38
74750;BMP280;63269;53.330;-6.288;2023-08-12T08:03:34;100289.31;;;23.38
74750;BMP280;63269;53.330;-6.288;2023-08-12T08:05:59;100292.25;;;23.40
74750;BMP280;63269;53.330;-6.288;2023-08-12T08:08:24;100295.41;;;23.38
74750;BMP280;63269;53.330;-6.288;2023-08-12T08:10:50;100300.28;;;23.40
74750;BMP280;63269;53.330;-6.288;2023-08-12T08:13:15;100294.91;;;23.40
74750;BMP280;63269;53.330;-6.288;2023-08-12T08:15:41;100290.34;;;23.40
74750;BMP280;63269;53.330;-6.288;2023-08-12T08:18:06;100296.41;;;23.41
74750;BMP280;63269;53.330;-6.288;2023-08-12T08:20:31;100308.63;;;23.42
74750;BMP280;63269;53.330;-6.288;2023-08-12T08:22:57;100317.81;;;23.41
74750;BMP280;63269;53.330;-6.288;2023-08-12T08:25:22;100315.16;;;23.41
74750;BMP280;63269;53.330;-6.288;2023-08-12T08:27:48;100327.34;;;23.42
74750;BMP280;63269;53.330;-6.288;2023-08-12T08:30:13;100318.06;;;23.43
74750;BMP280;63269;53.330;-6.288;2023-08-12T08:32:39;100324.66;;;23.42
74750;BMP280;63269;53.330;-6.288;2023-08-12T08:35:04;100325.84;;;23.41
74750;BMP280;63269;53.330;-6.288;2023-08-12T08:37:30;100331.47;;;23.43
74750;BMP280;63269;53.330;-6.288;2023-08-12T08:39:55;100327.59;;;23.44
74750;BMP280;63269;53.330;-6.288;2023-08-12T08:42:21;100324.94;;;23.44
74750;BMP280;63269;53.330;-6.288;2023-08-12T08:44:52;100315.72;;;23.45
74750;BMP280;63269;53.330;-6.288;2023-08-12T08:47:24;100317.63;;;23.44
74750;BMP280;63269;53.330;-6.288;2023-08-12T08:49:50;100312.28;;;23.44
74750;BMP280;63269;53.330;-6.288;2023-08-12T08:52:17;100314.94;;;23.44
74750;BMP280;63269;53.330;-6.288;2023-08-12T08:54:42;100322.56;;;23.46
74750;BMP280;63269;53.330;-6.288;2023-08-12T08:57:08;100317.63;;;23.44
74750;BMP280;63269;53.330;-6.288;2023-08-12T08:59:34;100312.28;;;23.44
74750;BMP280;63269;53.330;-6.288;2023-08-12T09:02:00;100314.53;;;23.46
74750;BMP280;63269;53.330;-6.288;2023-08-12T09:04:26;100320.59;;;23.46
74750;BMP280;63269;53.330;-6.288;2023-08-12T09:06:52;100325.66;;;23.44
74750;BMP280;63269;53.330;-6.288;2023-08-12T09:09:20;100322.81;;;23.48
74750;BMP280;63269;53.330;-6.288;2023-08-12T09:11:47;100315.22;;;23.46
74750;BMP280;63269;53.330;-6.288;2023-08-12T09:14:13;100311.09;;;23.45
74750;BMP280;63269;53.330;-6.288;2023-08-12T09:16:39;100317.44;;;23.48
74750;BMP280;63269;53.330;-6.288;2023-08-12T09:19:05;100315.97;;;23.47
74750;BMP280;63269;53.330;-6.288;2023-08-12T09:21:31;100320.84;;;23.48
74750;BMP280;63269;53.330;-6.288;2023-08-12T09:23:56;100313.59;;;23.49
74750;BMP280;63269;53.330;-6.288;2023-08-12T09:26:22;100319.69;;;23.50
74750;BMP280;63269;53.330;-6.288;2023-08-12T09:28:48;100325.72;;;23.50
74750;BMP280;63269;53.330;-6.288;2023-08-12T09:33:52;100328.41;;;23.50
74750;BMP280;63269;53.330;-6.288;2023-08-12T09:36:18;100323.06;;;23.50
74750;BMP280;63269;53.330;-6.288;2023-08-12T09:38:44;100332.56;;;23.51
74750;BMP280;63269;53.330;-6.288;2023-08-12T09:41:10;100320.69;;;23.52
74750;BMP280;63269;53.330;-6.288;2023-08-12T09:43:40;100328.72;;;23.52
74750;BMP280;63269;53.330;-6.288;2023-08-12T09:46:06;100337.94;;;23.51
74750;BMP280;63269;53.330;-6.288;2023-08-12T09:48:35;100330.63;;;23.52
74750;BMP280;63269;53.330;-6.288;2023-08-12T09:51:00;100340.16;;;23.53
74750;BMP280;63269;53.330;-6.288;2023-08-12T09:53:26;100332.88;;;23.53
74750;BMP280;63269;53.330;-6.288;2023-08-12T09:55:52;100332.56;;;23.51
74750;BMP280;63269;53.330;-6.288;2023-08-12T09:58:21;100344.31;;;23.54
74750;BMP280;63269;53.330;-6.288;2023-08-12T10:00:48;100356.97;;;23.53
74750;BMP280;63269;53.330;-6.288;2023-08-12T10:03:15;100350.88;;;23.53
74750;BMP280;63269;53.330;-6.288;2023-08-12T10:05:41;100346.28;;;23.53
74750;BMP280;63269;53.330;-6.288;2023-08-12T10:08:08;100349.69;;;23.54
74750;BMP280;63269;53.330;-6.288;2023-08-12T10:10:35;100351.63;;;23.53
74750;BMP280;63269;53.330;-6.288;2023-08-12T10:13:01;100353.06;;;23.54
74750;BMP280;63269;53.330;-6.288;2023-08-12T10:15:27;100349.69;;;23.54
74750;BMP280;63269;53.330;-6.288;2023-08-12T10:17:53;100347.72;;;23.54
74750;BMP280;63269;53.330;-6.288;2023-08-12T10:20:24;100347.25;;;23.56
74750;BMP280;63269;53.330;-6.288;2023-08-12T10:22:51;100357.97;;;23.56
74750;BMP280;63269;53.330;-6.288;2023-08-12T10:25:18;100349.94;;;23.56
74750;BMP280;63269;53.330;-6.288;2023-08-12T10:27:47;100346.53;;;23.55
74750;BMP280;63269;53.330;-6.288;2023-08-12T10:30:13;100355.28;;;23.56
74750;BMP280;63269;53.330;-6.288;2023-08-12T10:32:38;100351.88;;;23.55
74750;BMP280;63269;53.330;-6.288;2023-08-12T10:35:04;100350.69;;;23.56
74750;BMP280;63269;53.330;-6.288;2023-08-12T10:37:34;100345.34;;;23.56
74750;BMP280;63269;53.330;-6.288;2023-08-12T10:40:04;100360.63;;;23.56
74750;BMP280;63269;53.330;-6.288;2023-08-12T10:45:18;100367.00;;;23.58
74750;BMP280;63269;53.330;-6.288;2023-08-12T10:50:26;100380.38;;;23.58
74750;BMP280;63269;53.330;-6.288;2023-08-12T10:52:52;100378.94;;;23.57
74750;BMP280;63269;53.330;-6.288;2023-08-12T10:57:45;100383.53;;;23.57
74750;BMP280;63269;53.330;-6.288;2023-08-12T11:00:27;100381.16;;;23.59
74750;BMP280;63269;53.330;-6.288;2023-08-12T11:02:57;100385.50;;;23.56
74750;BMP280;63269;53.330;-6.288;2023-08-12T11:05:24;100392.31;;;23.57
74750;BMP280;63269;53.330;-6.288;2023-08-12T11:07:59;100380.38;;;23.58
74750;BMP280;63269;53.330;-6.288;2023-08-12T11:10:33;100390.38;;;23.58
74750;BMP280;63269;53.330;-6.288;2023-08-12T11:12:59;100386.97;;;23.57
74750;BMP280;63269;53.330;-6.288;2023-08-12T11:15:32;100385.75;;;23.58
74750;BMP280;63269;53.330;-6.288;2023-08-12T11:18:01;100390.38;;;23.58
74750;BMP280;63269;53.330;-6.288;2023-08-12T11:20:28;100396.94;;;23.57
74750;BMP280;63269;53.330;-6.288;2023-08-12T11:22:54;100396.94;;;23.57
74750;BMP280;63269;53.330;-6.288;2023-08-12T11:25:20;100397.66;;;23.57
74750;BMP280;63269;53.330;-6.288;2023-08-12T11:27:46;100397.66;;;23.57
74750;BMP280;63269;53.330;-6.288;2023-08-12T11:30:16;100390.38;;;23.58
74750;BMP280;63269;53.330;-6.288;2023-08-12T11:32:43;100384.28;;;23.57
74750;BMP280;63269;53.330;-6.288;2023-08-12T11:35:10;100389.63;;;23.57
74750;BMP280;63269;53.330;-6.288;2023-08-12T11:37:40;100386.22;;;23.57
74750;BMP280;63269;53.330;-6.288;2023-08-12T11:40:08;100385.50;;;23.56
74750;BMP280;63269;53.330;-6.288;2023-08-12T11:42:40;100386.97;;;23.57
74750;BMP280;63269;53.330;-6.288;2023-08-12T11:45:06;100381.31;;;23.55
74750;BMP280;63269;53.330;-6.288;2023-08-12T11:47:33;100389.63;;;23.57
74750;BMP280;63269;53.330;-6.288;2023-08-12T11:49:58;100396.19;;;23.56
74750;BMP280;63269;53.330;-6.288;2023-08-12T11:52:25;100384.72;;;23.56
74750;BMP280;63269;53.330;-6.288;2023-08-12T11:54:50;100379.38;;;23.56
74750;BMP280;63269;53.330;-6.288;2023-08-12T11:57:16;100368.66;;;23.56
74750;BMP280;63269;53.330;-6.288;2023-08-12T11:59:42;100376.25;;;23.57
74750;BMP280;63269;53.330;-6.288;2023-08-12T12:02:10;100375.97;;;23.55
74750;BMP280;63269;53.330;-6.288;2023-08-12T12:04:35;100374.78;;;23.56
74750;BMP280;63269;53.330;-6.288;2023-08-12T12:07:01;100372.84;;;23.57
74750;BMP280;63269;53.330;-6.288;2023-08-12T12:09:34;100387.41;;;23.56
74750;BMP280;63269;53.330;-6.288;2023-08-12T12:11:59;100373.56;;;23.57
74750;BMP280;63269;53.330;-6.288;2023-08-12T12:14:25;100378.94;;;23.57
74750;BMP280;63269;53.330;-6.288;2023-08-12T12:16:51;100374.31;;;23.58
74750;BMP280;63269;53.330;-6.288;2023-08-12T12:19:21;100390.38;;;23.58
74750;BMP280;63269;53.330;-6.288;2023-08-12T12:21:51;100410.31;;;23.57
74750;BMP280;63269;53.330;-6.288;2023-08-12T12:24:17;100398.41;;;23.58
74750;BMP280;63269;53.330;-6.288;2023-08-12T12:26:44;100413.72;;;23.57
74750;BMP280;63269;53.330;-6.288;2023-08-12T12:29:10;100419.09;;;23.57
74750;BMP280;63269;53.330;-6.288;2023-08-12T12:31:40;100411.78;;;23.58
74750;BMP280;63269;53.330;-6.288;2023-08-12T12:34:07;100419.81;;;23.58
74750;BMP280;63269;53.330;-6.288;2023-08-12T12:36:35;100418.63;;;23.59
74750;BMP280;63269;53.330;-6.288;2023-08-12T12:39:02;100415.19;;;23.58
74750;BMP280;63269;53.330;-6.288;2023-08-12T12:41:27;100414.94;;;23.56
74750;BMP280;63269;53.330;-6.288;2023-08-12T12:43:53;100403.03;;;23.57
74750;BMP280;63269;53.330;-6.288;2023-08-12T12:46:19;100396.19;;;23.56
74750;BMP280;63269;53.330;-6.288;2023-08-12T12:48:44;100416.41;;;23.57
74750;BMP280;63269;53.330;-6.288;2023-08-12T12:51:12;100415.66;;;23.57
74750;BMP280;63269;53.330;-6.288;2023-08-12T12:53:37;100396.94;;;23.57
74750;BMP280;63269;53.330;-6.288;2023-08-12T12:56:03;100399.63;;;23.57
74750;BMP280;63269;53.330;-6.288;2023-08-12T12:58:32;100403.03;;;23.57
74750;BMP280;63269;53.330;-6.288;2023-08-12T13:00:58;100411.78;;;23.58
74750;BMP280;63269;53.330;-6.288;2023-08-12T13:03:24;100402.56;;;23.59
74750;BMP280;63269;53.330;-6.288;2023-08-12T13:05:50;100414.75;;;23.60
74750;BMP280;63269;53.330;-6.288;2023-08-12T13:08:15;100415.03;;;23.62
74750;BMP280;63269;53.330;-6.288;2023-08-12T13:10:40;100415.75;;;23.62
74750;BMP280;63269;53.330;-6.288;2023-08-12T13:13:06;100409.22;;;23.63
74750;BMP280;63269;53.330;-6.288;2023-08-12T13:15:31;100407.28;;;23.64
74750;BMP280;63269;53.330;-6.288;2023-08-12T13:17:57;100407.09;;;23.67
74750;BMP280;63269;53.330;-6.288;2023-08-12T13:20:22;100414.19;;;23.71
74750;BMP280;63269;53.330;-6.288;2023-08-12T13:22:48;100408.41;;;23.72
74750;BMP280;63269;53.330;-6.288;2023-08-12T13:25:13;100406.53;;;23.78
74750;BMP280;63269;53.330;-6.288;2023-08-12T13:27:39;100407.16;;;23.88
74750;BMP280;63269;53.330;-6.288;2023-08-12T13:30:05;100409.22;;;23.93
74750;BMP280;63269;53.330;-6.288;2023-08-12T13:32:31;100412.44;;;23.97
74750;BMP280;63269;53.330;-6.288;2023-08-12T13:34:57;100403.72;;;24.02
74750;BMP280;63269;53.330;-6.288;2023-08-12T13:37:22;100412.78;;;24.05
74750;BMP280;63269;53.330;-6.288;2023-08-12T13:39:47;100416.47;;;24.07
74750;BMP280;63269;53.330;-6.288;2023-08-12T13:42:13;100409.94;;;24.08
74750;BMP280;63269;53.330;-6.288;2023-08-12T13:44:38;100411.38;;;24.09
74750;BMP280;63269;53.330;-6.288;2023-08-12T13:47:04;100405.59;;;24.11
74750;BMP280;63269;53.330;-6.288;2023-08-12T13:49:29;100417.03;;;24.11
74750;BMP280;63269;53.330;-6.288;2023-08-12T13:51:54;100415.09;;;24.12
74750;BMP280;63269;53.330;-6.288;2023-08-12T13:54:20;100405.59;;;24.11
74750;BMP280;63269;53.330;-6.288;2023-08-12T13:56:45;100405.13;;;24.13
74750;BMP280;63269;53.330;-6.288;2023-08-12T13:59:11;100412.41;;;24.12
74750;BMP280;63269;53.330;-6.288;2023-08-12T14:01:36;100433.84;;;24.12